createdAt,value
2023-03-01T00:00:10.782Z,22.80
2023-03-01T00:05:16.168Z,22.60
2023-03-01T00:10:17.893Z,23.47
2023-03-01T00:15:21.853Z,24.00
2023-03-01T00:20:23.803Z,22.27
2023-03-01T00:25:27.758Z,24.03
2023-03-01T00:30:29.400Z,23.73
2023-03-01T00:35:33.264Z,23.40
2023-03-01T00:40:36.318Z,23.07
2023-03-01T00:45:38.009Z,22.53
2023-03-01T00:50:41.938Z,21.83
2023-03-01T00:55:43.810Z,21.70
2023-03-01T01:00:45.479Z,20.73
2023-03-01T01:05:47.167Z,21.80
2023-03-01T01:10:51.093Z,19.93
2023-03-01T01:15:55.022Z,22.37
2023-03-01T01:21:03.868Z,20.37
2023-03-01T01:26:16.705Z,19.97
2023-03-01T01:31:21.094Z,20.70
2023-03-01T01:36:27.526Z,20.97
2023-03-01T01:41:32.465Z,20.50
2023-03-01T01:46:35.301Z,19.50
2023-03-01T01:51:40.749Z,19.30
2023-03-01T01:56:48.361Z,22.30
2023-03-01T02:01:50.082Z,21.30
2023-03-01T02:07:00.668Z,20.63
2023-03-01T02:12:05.360Z,20.13
2023-03-01T02:17:07.169Z,19.77
2023-03-01T02:22:25.744Z,27.57
2023-03-01T02:27:34.819Z,25.30
2023-03-01T02:32:38.779Z,23.80
2023-03-01T02:37:41.366Z,24.57
2023-03-01T02:42:55.103Z,23.17
2023-03-01T02:48:02.648Z,22.47
2023-03-01T02:53:24.606Z,25.07
2023-03-01T02:58:28.655Z,23.03
2023-03-01T03:03:30.882Z,25.67
2023-03-01T03:08:32.696Z,23.57
2023-03-01T03:13:49.383Z,27.90
2023-03-01T03:19:06.219Z,51.80
2023-03-01T03:24:08.404Z,55.90
2023-03-01T03:29:15.143Z,52.93
2023-03-01T03:34:19.865Z,51.63
2023-03-01T03:39:26.745Z,43.07
2023-03-01T03:44:31.425Z,46.60
2023-03-01T03:49:33.083Z,48.10
2023-03-01T03:54:34.760Z,53.37
2023-03-01T03:59:41.252Z,37.73
2023-03-01T04:04:45.059Z,41.80
2023-03-01T04:09:46.765Z,40.63
2023-03-01T04:14:49.036Z,42.97
2023-03-01T04:19:53.107Z,34.87
2023-03-01T04:24:54.937Z,37.23
2023-03-01T04:29:59.008Z,33.50
2023-03-01T04:35:03.068Z,35.87
2023-03-01T04:40:16.913Z,46.77
2023-03-01T04:45:20.891Z,43.23
2023-03-01T04:50:24.409Z,33.10
2023-03-01T04:55:29.542Z,27.03
2023-03-01T05:00:31.568Z,29.40
2023-03-01T05:05:36.064Z,38.53
2023-03-01T05:10:39.958Z,32.00
2023-03-01T05:15:41.810Z,30.67
2023-03-01T05:20:46.088Z,34.33
2023-03-01T05:25:47.754Z,39.43
2023-03-01T05:30:52.580Z,26.10
2023-03-01T05:35:54.686Z,35.63
2023-03-01T05:40:56.705Z,30.93
2023-03-01T05:46:00.895Z,32.00
2023-03-01T05:51:02.700Z,30.97
2023-03-01T05:56:07.155Z,34.47
2023-03-01T06:01:13.335Z,29.97
2023-03-01T06:06:15.074Z,24.70
2023-03-01T06:11:19.254Z,26.67
2023-03-01T06:16:23.009Z,24.13
2023-03-01T06:21:29.977Z,24.33
2023-03-01T06:26:34.661Z,22.10
2023-03-01T06:31:36.416Z,22.93
2023-03-01T06:36:40.803Z,22.30
2023-03-01T06:41:45.654Z,21.23
2023-03-01T06:46:47.441Z,20.63
2023-03-01T06:51:57.179Z,26.67
2023-03-01T06:57:00.980Z,24.80
2023-03-01T07:02:02.797Z,26.20
2023-03-01T07:07:04.593Z,28.30
2023-03-01T07:12:09.081Z,27.27
2023-03-01T07:17:13.100Z,29.43
2023-03-01T07:22:14.876Z,30.23
2023-03-01T07:27:19.058Z,31.37
2023-03-01T07:32:20.851Z,30.60
2023-03-01T07:37:24.822Z,32.40
2023-03-01T07:42:26.508Z,31.60
2023-03-01T07:47:32.724Z,29.40
2023-03-01T07:52:36.942Z,24.70
2023-03-01T07:57:40.936Z,26.00
2023-03-01T08:02:45.065Z,23.73
2023-03-01T08:07:51.675Z,19.83
2023-03-01T08:12:53.916Z,24.87
2023-03-01T08:17:57.710Z,26.73
2023-03-01T08:23:01.717Z,22.43
2023-03-01T08:28:08.264Z,28.40
2023-03-01T08:33:12.446Z,24.53
2023-03-01T08:38:14.284Z,26.83
2023-03-01T08:43:18.709Z,21.00
2023-03-01T08:48:25.081Z,22.53
2023-03-01T08:53:28.067Z,21.57
2023-03-01T08:58:32.393Z,25.83
2023-03-01T09:03:36.872Z,27.87
2023-03-01T09:08:42.707Z,26.00
2023-03-01T09:13:45.534Z,26.73
2023-03-01T09:18:51.478Z,27.40
2023-03-01T09:23:53.312Z,27.90
2023-03-01T09:28:56.445Z,25.57
2023-03-01T09:33:58.182Z,27.47
2023-03-01T09:39:01.098Z,22.17
2023-03-01T09:44:21.463Z,23.43
2023-03-01T09:49:25.876Z,16.90
2023-03-01T09:54:27.963Z,16.70
2023-03-01T10:00:05.583Z,14.50
2023-03-01T10:05:12.973Z,15.83
2023-03-01T10:10:32.583Z,9.57
2023-03-01T10:15:49.032Z,6.33
2023-03-01T10:21:16.170Z,10.07
2023-03-01T10:26:24.026Z,8.67
2023-03-01T10:31:30.355Z,8.40
2023-03-01T10:36:36.725Z,9.57
2023-03-01T10:41:52.881Z,10.63
2023-03-01T10:47:03.724Z,10.37
2023-03-01T10:52:21.287Z,10.03
2023-03-01T10:57:32.848Z,8.90
2023-03-01T11:02:35.101Z,9.80
2023-03-01T11:07:58.630Z,9.60
2023-03-01T11:13:16.822Z,10.35
2023-03-01T11:18:40.578Z,9.50
2023-03-01T11:23:48.480Z,8.47
2023-03-01T11:28:56.152Z,8.60
2023-03-01T11:34:02.265Z,8.93
2023-03-01T11:39:18.850Z,7.73
2023-03-01T11:44:35.088Z,8.70
2023-03-01T11:50:01.022Z,7.83
2023-03-01T11:55:19.007Z,7.87
2023-03-01T12:00:59.439Z,8.43
2023-03-01T12:06:07.038Z,8.83
2023-03-01T12:11:17.773Z,9.30
2023-03-01T12:16:38.337Z,9.93
2023-03-01T12:22:05.606Z,8.23
2023-03-01T12:27:28.187Z,8.98
2023-03-01T12:32:35.351Z,8.40
2023-03-01T12:37:46.922Z,9.50
2023-03-01T12:42:58.765Z,9.60
2023-03-01T12:48:06.658Z,9.63
2023-03-01T12:53:46.843Z,10.00
2023-03-01T12:59:00.659Z,10.65
2023-03-01T13:04:26.560Z,11.57
2023-03-01T13:09:44.692Z,11.15
2023-03-01T13:14:47.465Z,11.70
2023-03-01T13:19:59.530Z,11.55
2023-03-01T13:25:27.624Z,10.65
2023-03-01T13:30:37.909Z,10.45
2023-03-01T13:35:46.068Z,10.48
2023-03-01T13:40:56.489Z,10.75
2023-03-01T13:45:59.384Z,10.23
2023-03-01T13:51:07.471Z,9.60
2023-03-01T13:56:13.875Z,8.40
2023-03-01T14:01:43.741Z,8.82
2023-03-01T14:06:47.774Z,8.35
2023-03-01T14:12:01.593Z,9.35
2023-03-01T14:17:29.669Z,9.55
2023-03-01T14:22:34.996Z,8.18
2023-03-01T14:27:43.152Z,8.77
2023-03-01T14:32:55.967Z,9.13
2023-03-01T14:38:08.182Z,9.50
2023-03-01T14:43:12.703Z,9.23
2023-03-01T14:48:14.792Z,10.70
2023-03-01T14:53:23.960Z,9.80
2023-03-01T14:58:26.541Z,11.45
2023-03-01T15:03:38.262Z,11.13
2023-03-01T15:08:47.216Z,11.00
2023-03-01T15:13:49.573Z,12.50
2023-03-01T15:18:57.436Z,10.43
2023-03-01T15:24:12.632Z,11.23
2023-03-01T15:29:23.566Z,9.93
2023-03-01T15:34:34.547Z,10.05
2023-03-01T15:39:46.387Z,11.10
2023-03-01T15:44:48.175Z,10.63
2023-03-01T15:49:55.467Z,12.40
2023-03-01T15:55:03.533Z,12.97
2023-03-01T16:00:12.366Z,11.63
2023-03-01T16:05:24.142Z,10.83
2023-03-01T16:10:26.163Z,11.00
2023-03-01T16:15:32.634Z,9.97
2023-03-01T16:20:39.272Z,9.83
2023-03-01T16:25:41.153Z,10.13
2023-03-01T16:30:48.209Z,11.10
2023-03-01T16:35:56.407Z,11.03
2023-03-01T16:40:58.236Z,11.80
2023-03-01T16:46:11.436Z,12.60
2023-03-01T16:51:13.655Z,12.77
2023-03-01T16:56:16.060Z,13.83
2023-03-01T17:01:20.338Z,15.20
2023-03-01T17:06:23.184Z,13.23
2023-03-01T17:11:27.583Z,15.90
2023-03-01T17:16:32.046Z,13.10
2023-03-01T17:21:34.029Z,12.67
2023-03-01T17:26:36.107Z,14.37
2023-03-01T17:31:40.320Z,13.37
2023-03-01T17:36:44.106Z,13.23
2023-03-01T17:41:48.010Z,12.13
2023-03-01T17:46:49.747Z,10.40
2023-03-01T17:51:51.496Z,10.17
2023-03-01T17:56:58.892Z,10.47
2023-03-01T18:02:05.901Z,9.57
2023-03-01T18:07:07.687Z,11.20
2023-03-01T18:12:14.118Z,8.97
2023-03-01T18:17:15.909Z,9.00
2023-03-01T18:22:20.348Z,9.50
2023-03-01T18:27:24.296Z,13.53
2023-03-01T18:32:26.706Z,12.67
2023-03-01T18:37:31.780Z,9.63
2023-03-01T18:42:33.594Z,7.80
2023-03-01T18:47:45.383Z,6.27
2023-03-01T18:52:47.122Z,7.30
2023-03-01T18:57:48.854Z,8.40
2023-03-01T19:02:53.158Z,9.13
2023-03-01T19:07:55.132Z,10.17
2023-03-01T19:12:59.177Z,10.30
2023-03-01T19:18:06.225Z,8.80
2023-03-01T19:23:08.125Z,7.33
2023-03-01T19:28:09.871Z,7.73
2023-03-01T19:33:13.932Z,7.80
2023-03-01T19:38:15.698Z,9.00
2023-03-01T19:43:20.797Z,8.70
2023-03-01T19:48:22.800Z,9.07
2023-03-01T19:53:25.020Z,12.37
2023-03-01T19:58:28.514Z,12.63
2023-03-01T20:03:35.238Z,15.93
2023-03-01T20:08:39.606Z,14.10
2023-03-01T20:13:41.725Z,15.40
2023-03-01T20:18:46.336Z,17.83
2023-03-01T20:23:48.522Z,15.93
2023-03-01T20:28:54.720Z,15.47
2023-03-01T20:33:57.713Z,17.73
2023-03-01T20:38:59.434Z,20.87
2023-03-01T20:44:01.187Z,19.50
2023-03-01T20:49:08.379Z,21.57
2023-03-01T20:54:10.779Z,21.73
2023-03-01T20:59:15.968Z,21.50
2023-03-01T21:04:20.559Z,21.83
2023-03-01T21:09:27.104Z,23.90
2023-03-01T21:14:28.930Z,32.83
2023-03-01T21:19:30.605Z,31.93
2023-03-01T21:24:32.355Z,34.17
2023-03-01T21:29:40.521Z,45.97
2023-03-01T21:34:47.803Z,49.90
2023-03-01T21:39:51.782Z,53.63
2023-03-01T21:44:55.534Z,57.30
2023-03-01T21:49:57.542Z,54.20
2023-03-01T21:55:03.040Z,53.47
2023-03-01T22:00:10.641Z,55.47
2023-03-01T22:05:16.824Z,57.60
2023-03-01T22:10:27.161Z,52.37
2023-03-01T22:15:31.060Z,49.27
2023-03-01T22:20:32.868Z,41.40
2023-03-01T22:25:41.331Z,38.53
2023-03-01T22:30:44.389Z,33.63
2023-03-01T22:35:48.541Z,31.73
2023-03-01T22:41:03.581Z,32.47
2023-03-01T22:46:18.664Z,27.97
2023-03-01T22:51:32.104Z,29.27
2023-03-01T22:56:36.746Z,30.77
2023-03-01T23:01:41.984Z,28.70
2023-03-01T23:06:56.493Z,28.50
2023-03-01T23:12:01.708Z,30.07
2023-03-01T23:17:10.180Z,28.70
2023-03-01T23:22:14.620Z,29.13
2023-03-01T23:27:20.115Z,28.73
2023-03-01T23:32:24.347Z,24.40
2023-03-01T23:37:33.702Z,24.87
2023-03-01T23:42:35.454Z,27.57
2023-03-01T23:47:38.664Z,30.87
2023-03-01T23:52:45.088Z,32.37
2023-03-01T23:57:46.792Z,35.77
